This is the latest recevied weather packets stored in our database for station/object HUGOCO. If no packets are shown the sender has not sent any weather packets the latest 10 day(s).
| Time | Temp. | Humidity | Pressure | Rain* | Wind** | Luminosity | Snow |
|---|---|---|---|---|---|---|---|
| 1777822265 | 19.44° C | 20% | 1014.7 hPa | 0 mm | - | - | - |
| 1777821965 | 19.44° C | 21% | 1014.7 hPa | 0 mm | - | - | - |
| 1777821665 | 19.44° C | 20% | 1014.9 hPa | 0 mm | - | - | - |
| 1777821365 | 19.44° C | 20% | 1014.8 hPa | 0 mm | - | - | - |
| 1777821065 | 19.44° C | 21% | 1014.8 hPa | 0 mm | - | - | - |
| 1777820765 | 19.44° C | 20% | 1014.9 hPa | 0 mm | - | - | - |
| 1777820465 | 19.44° C | 20% | 1015 hPa | 0 mm | - | - | - |
| 1777820165 | 19.44° C | 20% | 1015 hPa | 0 mm | - | - | - |
| 1777819865 | 19.44° C | 21% | 1015 hPa | 0 mm | - | - | - |
| 1777819565 | 19.44° C | 25% | 1015.1 hPa | 0 mm | - | - | - |
| 1777819265 | 18.33° C | 27% | 1015.1 hPa | 0 mm | - | - | - |
| 1777818965 | 17.22° C | 34% | 1015.3 hPa | 0 mm | - | - | - |
| 1777818665 | 16.67° C | 36% | 1015.4 hPa | 0 mm | - | - | - |
| 1777818365 | 16.67° C | 35% | 1015.4 hPa | 0 mm | - | - | - |
| 1777818065 | 16.11° C | 38% | 1015.3 hPa | 0 mm | - | - | - |
| 1777817765 | 15.56° C | 40% | 1015.4 hPa | 0 mm | - | - | - |
| 1777817465 | 15.56° C | 40% | 1015.3 hPa | 0 mm | - | - | - |
| 1777817165 | 14.44° C | 42% | 1015.4 hPa | 0 mm | - | - | - |
| 1777816865 | 13.33° C | 46% | 1015.4 hPa | 0 mm | - | - | - |
| 1777816565 | 12.22° C | 48% | 1015.5 hPa | 0 mm | - | - | - |
| 1777816265 | 11.67° C | 49% | 1015.4 hPa | 0 mm | - | - | - |
| 1777815965 | 11.11° C | 49% | 1015.4 hPa | 0 mm | - | - | - |
| 1777815665 | 10.56° C | 49% | 1015.4 hPa | 0 mm | - | - | - |
| 1777815365 | 10.56° C | 52% | 1015.6 hPa | 0 mm | - | - | - |
| 1777815065 | 10° C | 52% | 1015.6 hPa | 0 mm | - | - | - |
* Rain latest hour (hover to see other rain measurements)
** Current wind speed in m/s (hover to see current wind gust speed)